sensor_id;sensor_type;location;lat;lon;timestamp;P1;durP1;ratioP1;P2;durP2;ratioP2
33190;SDS011;19554;42.652;23.364;2023-05-17T00:00:19;20.67;;;8.00;;
33190;SDS011;19554;42.652;23.364;2023-05-17T00:02:44;13.43;;;7.55;;
33190;SDS011;19554;42.652;23.364;2023-05-17T00:05:10;18.73;;;7.25;;
33190;SDS011;19554;42.652;23.364;2023-05-17T00:07:35;16.02;;;7.90;;
33190;SDS011;19554;42.652;23.364;2023-05-17T00:10:01;18.17;;;7.55;;
33190;SDS011;19554;42.652;23.364;2023-05-17T00:12:27;13.60;;;6.75;;
33190;SDS011;19554;42.652;23.364;2023-05-17T00:14:52;18.35;;;7.03;;
33190;SDS011;19554;42.652;23.364;2023-05-17T00:17:17;15.05;;;6.80;;
33190;SDS011;19554;42.652;23.364;2023-05-17T00:19:43;18.70;;;6.75;;
33190;SDS011;19554;42.652;23.364;2023-05-17T00:22:08;13.48;;;6.85;;
33190;SDS011;19554;42.652;23.364;2023-05-17T00:24:33;21.95;;;7.03;;
33190;SDS011;19554;42.652;23.364;2023-05-17T00:26:59;19.05;;;7.60;;
33190;SDS011;19554;42.652;23.364;2023-05-17T00:29:24;13.75;;;6.72;;
33190;SDS011;19554;42.652;23.364;2023-05-17T00:31:49;15.65;;;6.47;;
33190;SDS011;19554;42.652;23.364;2023-05-17T00:34:15;16.55;;;6.60;;
33190;SDS011;19554;42.652;23.364;2023-05-17T00:36:40;10.63;;;6.00;;
33190;SDS011;19554;42.652;23.364;2023-05-17T00:39:05;14.85;;;6.65;;
33190;SDS011;19554;42.652;23.364;2023-05-17T00:41:31;15.65;;;7.85;;
33190;SDS011;19554;42.652;23.364;2023-05-17T00:43:56;23.88;;;10.38;;
33190;SDS011;19554;42.652;23.364;2023-05-17T00:46:22;26.60;;;11.80;;
33190;SDS011;19554;42.652;23.364;2023-05-17T00:48:47;20.33;;;8.57;;
33190;SDS011;19554;42.652;23.364;2023-05-17T00:51:13;20.38;;;7.78;;
33190;SDS011;19554;42.652;23.364;2023-05-17T00:53:38;15.07;;;7.55;;
33190;SDS011;19554;42.652;23.364;2023-05-17T00:56:04;18.83;;;7.78;;
33190;SDS011;19554;42.652;23.364;2023-05-17T00:58:30;34.25;;;12.25;;
33190;SDS011;19554;42.652;23.364;2023-05-17T01:00:55;25.30;;;10.23;;
33190;SDS011;19554;42.652;23.364;2023-05-17T01:03:21;23.00;;;10.95;;
33190;SDS011;19554;42.652;23.364;2023-05-17T01:05:47;17.23;;;9.20;;
33190;SDS011;19554;42.652;23.364;2023-05-17T01:08:14;24.50;;;9.77;;
33190;SDS011;19554;42.652;23.364;2023-05-17T01:10:48;24.30;;;8.75;;
33190;SDS011;19554;42.652;23.364;2023-05-17T01:13:26;20.13;;;8.75;;
33190;SDS011;19554;42.652;23.364;2023-05-17T01:16:09;25.65;;;8.85;;
33190;SDS011;19554;42.652;23.364;2023-05-17T01:18:51;20.35;;;9.18;;
33190;SDS011;19554;42.652;23.364;2023-05-17T01:21:49;17.42;;;9.48;;
33190;SDS011;19554;42.652;23.364;2023-05-17T01:27:12;20.75;;;7.55;;
33190;SDS011;19554;42.652;23.364;2023-05-17T01:29:39;12.88;;;7.13;;
33190;SDS011;19554;42.652;23.364;2023-05-17T01:32:08;23.73;;;8.85;;
33190;SDS011;19554;42.652;23.364;2023-05-17T01:34:35;14.90;;;7.20;;
33190;SDS011;19554;42.652;23.364;2023-05-17T01:37:00;17.95;;;5.90;;
33190;SDS011;19554;42.652;23.364;2023-05-17T01:39:25;13.90;;;5.70;;
33190;SDS011;19554;42.652;23.364;2023-05-17T01:44:39;19.38;;;6.80;;
33190;SDS011;19554;42.652;23.364;2023-05-17T01:47:42;15.05;;;6.60;;
33190;SDS011;19554;42.652;23.364;2023-05-17T01:50:09;18.67;;;6.72;;
33190;SDS011;19554;42.652;23.364;2023-05-17T01:57:59;18.30;;;6.53;;
33190;SDS011;19554;42.652;23.364;2023-05-17T02:00:27;20.30;;;8.05;;
33190;SDS011;19554;42.652;23.364;2023-05-17T02:02:53;15.20;;;6.63;;
33190;SDS011;19554;42.652;23.364;2023-05-17T02:05:19;17.40;;;7.15;;
33190;SDS011;19554;42.652;23.364;2023-05-17T02:07:44;14.63;;;6.38;;
33190;SDS011;19554;42.652;23.364;2023-05-17T02:10:10;19.90;;;7.82;;
33190;SDS011;19554;42.652;23.364;2023-05-17T02:12:35;19.30;;;7.80;;
33190;SDS011;19554;42.652;23.364;2023-05-17T02:15:01;17.75;;;7.60;;
33190;SDS011;19554;42.652;23.364;2023-05-17T02:17:26;23.50;;;7.70;;
33190;SDS011;19554;42.652;23.364;2023-05-17T02:19:51;19.85;;;8.55;;
33190;SDS011;19554;42.652;23.364;2023-05-17T02:22:17;21.40;;;7.97;;
33190;SDS011;19554;42.652;23.364;2023-05-17T02:24:42;17.70;;;8.27;;
33190;SDS011;19554;42.652;23.364;2023-05-17T02:27:08;16.70;;;7.47;;
33190;SDS011;19554;42.652;23.364;2023-05-17T02:29:33;15.75;;;8.60;;
33190;SDS011;19554;42.652;23.364;2023-05-17T02:31:58;26.05;;;11.02;;
33190;SDS011;19554;42.652;23.364;2023-05-17T02:34:24;21.25;;;10.35;;
33190;SDS011;19554;42.652;23.364;2023-05-17T02:36:49;21.73;;;11.48;;
33190;SDS011;19554;42.652;23.364;2023-05-17T02:39:14;21.40;;;10.77;;
33190;SDS011;19554;42.652;23.364;2023-05-17T02:41:40;21.27;;;11.20;;
33190;SDS011;19554;42.652;23.364;2023-05-17T02:44:05;22.25;;;11.60;;
33190;SDS011;19554;42.652;23.364;2023-05-17T02:46:31;23.35;;;11.55;;
33190;SDS011;19554;42.652;23.364;2023-05-17T02:48:56;28.25;;;11.98;;
33190;SDS011;19554;42.652;23.364;2023-05-17T02:51:21;22.80;;;12.05;;
33190;SDS011;19554;42.652;23.364;2023-05-17T02:53:47;25.38;;;11.60;;
33190;SDS011;19554;42.652;23.364;2023-05-17T02:56:12;24.23;;;11.70;;
33190;SDS011;19554;42.652;23.364;2023-05-17T02:58:38;21.77;;;11.50;;
33190;SDS011;19554;42.652;23.364;2023-05-17T03:01:03;23.67;;;12.73;;
33190;SDS011;19554;42.652;23.364;2023-05-17T03:03:28;23.90;;;12.68;;
33190;SDS011;19554;42.652;23.364;2023-05-17T03:05:58;29.67;;;13.60;;
33190;SDS011;19554;42.652;23.364;2023-05-17T03:08:24;30.50;;;13.20;;
33190;SDS011;19554;42.652;23.364;2023-05-17T03:10:50;28.38;;;13.55;;
33190;SDS011;19554;42.652;23.364;2023-05-17T03:13:16;28.70;;;13.35;;
33190;SDS011;19554;42.652;23.364;2023-05-17T03:15:41;23.95;;;13.52;;
33190;SDS011;19554;42.652;23.364;2023-05-17T03:18:06;31.65;;;14.40;;
33190;SDS011;19554;42.652;23.364;2023-05-17T03:20:32;27.92;;;12.93;;
33190;SDS011;19554;42.652;23.364;2023-05-17T03:22:57;26.60;;;12.95;;
33190;SDS011;19554;42.652;23.364;2023-05-17T03:25:23;24.00;;;14.45;;
33190;SDS011;19554;42.652;23.364;2023-05-17T03:27:48;24.52;;;14.13;;
33190;SDS011;19554;42.652;23.364;2023-05-17T03:30:13;29.52;;;13.60;;
33190;SDS011;19554;42.652;23.364;2023-05-17T03:32:39;27.17;;;13.65;;
33190;SDS011;19554;42.652;23.364;2023-05-17T03:35:04;24.35;;;14.30;;
33190;SDS011;19554;42.652;23.364;2023-05-17T03:37:30;27.27;;;14.40;;
33190;SDS011;19554;42.652;23.364;2023-05-17T03:39:56;30.40;;;14.48;;
33190;SDS011;19554;42.652;23.364;2023-05-17T03:42:21;34.35;;;15.50;;
33190;SDS011;19554;42.652;23.364;2023-05-17T03:44:46;29.13;;;14.65;;
33190;SDS011;19554;42.652;23.364;2023-05-17T03:47:12;24.70;;;13.43;;
33190;SDS011;19554;42.652;23.364;2023-05-17T03:49:37;24.38;;;13.88;;
33190;SDS011;19554;42.652;23.364;2023-05-17T03:52:03;33.92;;;15.32;;
33190;SDS011;19554;42.652;23.364;2023-05-17T03:54:28;28.75;;;16.13;;
33190;SDS011;19554;42.652;23.364;2023-05-17T03:56:53;33.85;;;15.50;;
33190;SDS011;19554;42.652;23.364;2023-05-17T03:59:19;28.58;;;15.60;;
33190;SDS011;19554;42.652;23.364;2023-05-17T04:01:44;24.77;;;14.73;;
33190;SDS011;19554;42.652;23.364;2023-05-17T04:04:10;31.88;;;14.77;;
33190;SDS011;19554;42.652;23.364;2023-05-17T04:06:35;29.13;;;15.43;;
33190;SDS011;19554;42.652;23.364;2023-05-17T04:09:01;28.00;;;15.65;;
33190;SDS011;19554;42.652;23.364;2023-05-17T04:11:26;25.08;;;15.38;;
33190;SDS011;19554;42.652;23.364;2023-05-17T04:13:52;28.25;;;14.30;;
33190;SDS011;19554;42.652;23.364;2023-05-17T04:16:18;28.15;;;15.65;;
33190;SDS011;19554;42.652;23.364;2023-05-17T04:18:44;25.55;;;14.90;;
33190;SDS011;19554;42.652;23.364;2023-05-17T04:21:10;28.75;;;15.18;;
33190;SDS011;19554;42.652;23.364;2023-05-17T04:23:35;34.70;;;14.10;;
33190;SDS011;19554;42.652;23.364;2023-05-17T04:26:02;28.45;;;15.88;;
33190;SDS011;19554;42.652;23.364;2023-05-17T04:28:29;29.33;;;15.07;;
33190;SDS011;19554;42.652;23.364;2023-05-17T04:30:55;24.98;;;15.43;;
33190;SDS011;19554;42.652;23.364;2023-05-17T04:33:21;26.05;;;14.65;;
33190;SDS011;19554;42.652;23.364;2023-05-17T04:35:47;26.38;;;15.23;;
33190;SDS011;19554;42.652;23.364;2023-05-17T04:38:14;30.40;;;15.98;;
33190;SDS011;19554;42.652;23.364;2023-05-17T04:40:40;24.42;;;15.20;;
33190;SDS011;19554;42.652;23.364;2023-05-17T04:43:06;26.85;;;16.42;;
33190;SDS011;19554;42.652;23.364;2023-05-17T04:45:32;24.52;;;16.02;;
33190;SDS011;19554;42.652;23.364;2023-05-17T04:47:58;27.10;;;15.30;;
33190;SDS011;19554;42.652;23.364;2023-05-17T04:50:23;28.63;;;15.82;;
33190;SDS011;19554;42.652;23.364;2023-05-17T04:52:50;29.27;;;16.45;;
33190;SDS011;19554;42.652;23.364;2023-05-17T04:55:16;26.33;;;15.77;;
33190;SDS011;19554;42.652;23.364;2023-05-17T04:57:41;31.35;;;16.50;;
33190;SDS011;19554;42.652;23.364;2023-05-17T05:00:07;29.35;;;16.02;;
33190;SDS011;19554;42.652;23.364;2023-05-17T05:02:34;25.55;;;15.57;;
33190;SDS011;19554;42.652;23.364;2023-05-17T05:05:00;27.33;;;15.70;;
33190;SDS011;19554;42.652;23.364;2023-05-17T05:07:25;26.38;;;15.98;;
33190;SDS011;19554;42.652;23.364;2023-05-17T05:09:50;26.10;;;17.00;;
33190;SDS011;19554;42.652;23.364;2023-05-17T05:12:16;28.08;;;16.38;;
33190;SDS011;19554;42.652;23.364;2023-05-17T05:14:43;27.05;;;16.38;;
33190;SDS011;19554;42.652;23.364;2023-05-17T05:17:09;28.88;;;16.52;;
33190;SDS011;19554;42.652;23.364;2023-05-17T05:19:34;28.98;;;15.15;;
33190;SDS011;19554;42.652;23.364;2023-05-17T05:22:00;30.42;;;16.25;;
33190;SDS011;19554;42.652;23.364;2023-05-17T05:24:25;31.23;;;16.17;;
33190;SDS011;19554;42.652;23.364;2023-05-17T05:26:51;26.00;;;14.82;;
33190;SDS011;19554;42.652;23.364;2023-05-17T05:29:17;27.23;;;15.13;;
33190;SDS011;19554;42.652;23.364;2023-05-17T05:31:42;27.85;;;15.77;;
33190;SDS011;19554;42.652;23.364;2023-05-17T05:34:08;30.23;;;15.88;;
33190;SDS011;19554;42.652;23.364;2023-05-17T05:36:34;28.83;;;14.40;;
33190;SDS011;19554;42.652;23.364;2023-05-17T05:38:59;26.50;;;13.65;;
33190;SDS011;19554;42.652;23.364;2023-05-17T05:41:24;28.73;;;15.00;;
33190;SDS011;19554;42.652;23.364;2023-05-17T05:43:50;23.50;;;14.45;;
33190;SDS011;19554;42.652;23.364;2023-05-17T05:46:15;27.33;;;14.05;;
33190;SDS011;19554;42.652;23.364;2023-05-17T05:48:41;20.95;;;12.25;;
33190;SDS011;19554;42.652;23.364;2023-05-17T05:51:06;24.65;;;11.98;;
33190;SDS011;19554;42.652;23.364;2023-05-17T05:53:32;23.35;;;10.93;;
33190;SDS011;19554;42.652;23.364;2023-05-17T05:55:57;24.25;;;10.68;;
33190;SDS011;19554;42.652;23.364;2023-05-17T05:58:23;21.27;;;11.90;;
33190;SDS011;19554;42.652;23.364;2023-05-17T06:00:48;22.30;;;13.07;;
33190;SDS011;19554;42.652;23.364;2023-05-17T06:03:14;17.85;;;12.18;;
33190;SDS011;19554;42.652;23.364;2023-05-17T06:05:39;23.38;;;11.93;;
33190;SDS011;19554;42.652;23.364;2023-05-17T06:08:05;18.73;;;11.07;;
33190;SDS011;19554;42.652;23.364;2023-05-17T06:10:30;22.00;;;12.07;;
33190;SDS011;19554;42.652;23.364;2023-05-17T06:12:56;25.35;;;12.60;;
33190;SDS011;19554;42.652;23.364;2023-05-17T06:15:21;22.48;;;11.85;;
33190;SDS011;19554;42.652;23.364;2023-05-17T06:17:47;25.70;;;12.40;;
33190;SDS011;19554;42.652;23.364;2023-05-17T06:20:12;23.50;;;12.65;;
33190;SDS011;19554;42.652;23.364;2023-05-17T06:22:39;17.25;;;10.43;;
33190;SDS011;19554;42.652;23.364;2023-05-17T06:25:04;19.38;;;10.88;;
33190;SDS011;19554;42.652;23.364;2023-05-17T06:27:30;27.08;;;13.23;;
33190;SDS011;19554;42.652;23.364;2023-05-17T06:29:56;28.50;;;13.15;;
33190;SDS011;19554;42.652;23.364;2023-05-17T06:32:22;24.38;;;12.18;;
33190;SDS011;19554;42.652;23.364;2023-05-17T06:34:47;25.42;;;11.82;;
33190;SDS011;19554;42.652;23.364;2023-05-17T06:37:13;23.85;;;12.10;;
33190;SDS011;19554;42.652;23.364;2023-05-17T06:39:38;23.50;;;11.70;;
33190;SDS011;19554;42.652;23.364;2023-05-17T06:42:03;24.77;;;11.48;;
33190;SDS011;19554;42.652;23.364;2023-05-17T06:44:29;20.70;;;11.48;;
33190;SDS011;19554;42.652;23.364;2023-05-17T06:46:54;22.30;;;11.65;;
33190;SDS011;19554;42.652;23.364;2023-05-17T06:49:20;25.02;;;11.55;;
33190;SDS011;19554;42.652;23.364;2023-05-17T06:51:46;27.38;;;12.38;;
33190;SDS011;19554;42.652;23.364;2023-05-17T06:54:12;18.77;;;11.63;;
33190;SDS011;19554;42.652;23.364;2023-05-17T06:56:38;18.98;;;12.18;;
33190;SDS011;19554;42.652;23.364;2023-05-17T06:59:03;20.90;;;11.48;;
33190;SDS011;19554;42.652;23.364;2023-05-17T07:01:29;22.48;;;13.07;;
33190;SDS011;19554;42.652;23.364;2023-05-17T07:03:55;22.88;;;12.63;;
33190;SDS011;19554;42.652;23.364;2023-05-17T07:06:21;24.05;;;12.77;;
33190;SDS011;19554;42.652;23.364;2023-05-17T07:08:46;23.77;;;12.43;;
33190;SDS011;19554;42.652;23.364;2023-05-17T07:11:12;26.27;;;13.45;;
33190;SDS011;19554;42.652;23.364;2023-05-17T07:13:37;26.55;;;13.40;;
33190;SDS011;19554;42.652;23.364;2023-05-17T07:16:03;20.75;;;12.60;;
33190;SDS011;19554;42.652;23.364;2023-05-17T07:18:28;19.10;;;11.23;;
33190;SDS011;19554;42.652;23.364;2023-05-17T07:20:54;23.90;;;13.15;;
33190;SDS011;19554;42.652;23.364;2023-05-17T07:23:19;22.75;;;12.85;;
33190;SDS011;19554;42.652;23.364;2023-05-17T07:25:44;22.90;;;12.63;;
33190;SDS011;19554;42.652;23.364;2023-05-17T07:28:10;20.13;;;11.73;;
33190;SDS011;19554;42.652;23.364;2023-05-17T07:30:35;25.20;;;12.60;;
33190;SDS011;19554;42.652;23.364;2023-05-17T07:33:01;23.00;;;12.25;;
33190;SDS011;19554;42.652;23.364;2023-05-17T07:35:26;28.23;;;13.13;;
33190;SDS011;19554;42.652;23.364;2023-05-17T07:37:51;23.80;;;11.65;;
33190;SDS011;19554;42.652;23.364;2023-05-17T07:40:17;23.48;;;11.57;;
33190;SDS011;19554;42.652;23.364;2023-05-17T07:42:42;26.23;;;12.15;;
33190;SDS011;19554;42.652;23.364;2023-05-17T07:45:08;26.65;;;12.10;;
33190;SDS011;19554;42.652;23.364;2023-05-17T07:47:33;28.67;;;13.73;;
33190;SDS011;19554;42.652;23.364;2023-05-17T07:49:59;23.75;;;11.77;;
33190;SDS011;19554;42.652;23.364;2023-05-17T07:52:24;23.17;;;12.52;;
33190;SDS011;19554;42.652;23.364;2023-05-17T07:54:50;26.73;;;12.80;;
33190;SDS011;19554;42.652;23.364;2023-05-17T07:57:15;25.75;;;12.02;;
33190;SDS011;19554;42.652;23.364;2023-05-17T07:59:40;24.98;;;12.00;;
33190;SDS011;19554;42.652;23.364;2023-05-17T08:02:06;26.27;;;12.77;;
33190;SDS011;19554;42.652;23.364;2023-05-17T08:04:31;23.50;;;12.63;;
33190;SDS011;19554;42.652;23.364;2023-05-17T08:06:57;23.50;;;11.93;;
33190;SDS011;19554;42.652;23.364;2023-05-17T08:09:24;24.75;;;13.15;;
33190;SDS011;19554;42.652;23.364;2023-05-17T08:11:50;24.13;;;13.13;;
33190;SDS011;19554;42.652;23.364;2023-05-17T08:14:15;31.45;;;13.60;;
33190;SDS011;19554;42.652;23.364;2023-05-17T08:16:42;21.13;;;12.20;;
33190;SDS011;19554;42.652;23.364;2023-05-17T08:19:11;29.20;;;12.05;;
33190;SDS011;19554;42.652;23.364;2023-05-17T08:21:41;22.70;;;11.13;;
33190;SDS011;19554;42.652;23.364;2023-05-17T08:24:07;24.85;;;11.02;;
33190;SDS011;19554;42.652;23.364;2023-05-17T08:26:33;26.30;;;12.18;;
33190;SDS011;19554;42.652;23.364;2023-05-17T08:29:00;25.30;;;11.88;;
33190;SDS011;19554;42.652;23.364;2023-05-17T08:31:26;22.90;;;11.70;;
33190;SDS011;19554;42.652;23.364;2023-05-17T08:33:52;22.05;;;10.98;;
33190;SDS011;19554;42.652;23.364;2023-05-17T08:36:17;22.20;;;10.55;;
33190;SDS011;19554;42.652;23.364;2023-05-17T08:38:42;23.38;;;11.68;;
33190;SDS011;19554;42.652;23.364;2023-05-17T08:41:08;22.10;;;10.70;;
33190;SDS011;19554;42.652;23.364;2023-05-17T08:43:34;27.20;;;10.55;;
33190;SDS011;19554;42.652;23.364;2023-05-17T08:45:59;28.42;;;11.48;;
33190;SDS011;19554;42.652;23.364;2023-05-17T08:48:27;23.77;;;11.35;;
33190;SDS011;19554;42.652;23.364;2023-05-17T08:50:55;29.17;;;11.90;;
33190;SDS011;19554;42.652;23.364;2023-05-17T08:53:20;18.33;;;10.35;;
33190;SDS011;19554;42.652;23.364;2023-05-17T08:55:47;23.90;;;10.90;;
33190;SDS011;19554;42.652;23.364;2023-05-17T08:58:15;25.58;;;10.65;;
33190;SDS011;19554;42.652;23.364;2023-05-17T09:00:45;24.40;;;10.82;;
33190;SDS011;19554;42.652;23.364;2023-05-17T09:03:14;21.35;;;10.98;;
33190;SDS011;19554;42.652;23.364;2023-05-17T09:05:42;29.67;;;11.98;;
33190;SDS011;19554;42.652;23.364;2023-05-17T09:08:11;28.33;;;12.80;;
33190;SDS011;19554;42.652;23.364;2023-05-17T09:10:39;27.15;;;13.05;;
33190;SDS011;19554;42.652;23.364;2023-05-17T09:13:05;25.60;;;13.43;;
33190;SDS011;19554;42.652;23.364;2023-05-17T09:15:31;25.05;;;11.43;;
33190;SDS011;19554;42.652;23.364;2023-05-17T09:17:58;26.95;;;11.55;;
33190;SDS011;19554;42.652;23.364;2023-05-17T09:20:25;29.88;;;12.98;;
33190;SDS011;19554;42.652;23.364;2023-05-17T09:22:58;27.27;;;12.20;;
33190;SDS011;19554;42.652;23.364;2023-05-17T09:25:25;21.63;;;11.55;;
33190;SDS011;19554;42.652;23.364;2023-05-17T09:27:53;26.85;;;11.57;;
33190;SDS011;19554;42.652;23.364;2023-05-17T09:30:27;22.52;;;11.82;;
33190;SDS011;19554;42.652;23.364;2023-05-17T09:32:57;24.15;;;11.25;;
33190;SDS011;19554;42.652;23.364;2023-05-17T09:35:29;28.17;;;12.73;;
33190;SDS011;19554;42.652;23.364;2023-05-17T09:38:05;26.25;;;12.00;;
33190;SDS011;19554;42.652;23.364;2023-05-17T09:40:30;20.85;;;10.73;;
33190;SDS011;19554;42.652;23.364;2023-05-17T09:42:57;23.45;;;12.05;;
33190;SDS011;19554;42.652;23.364;2023-05-17T09:45:23;24.17;;;10.93;;
33190;SDS011;19554;42.652;23.364;2023-05-17T09:47:49;19.13;;;10.23;;
33190;SDS011;19554;42.652;23.364;2023-05-17T09:50:18;20.35;;;10.48;;
33190;SDS011;19554;42.652;23.364;2023-05-17T09:52:45;23.33;;;10.45;;
33190;SDS011;19554;42.652;23.364;2023-05-17T09:55:10;21.45;;;10.63;;
33190;SDS011;19554;42.652;23.364;2023-05-17T09:57:37;19.58;;;10.88;;
33190;SDS011;19554;42.652;23.364;2023-05-17T10:00:04;19.77;;;9.05;;
33190;SDS011;19554;42.652;23.364;2023-05-17T10:02:36;18.92;;;8.32;;
33190;SDS011;19554;42.652;23.364;2023-05-17T10:05:04;21.25;;;9.32;;
33190;SDS011;19554;42.652;23.364;2023-05-17T10:07:32;22.60;;;9.40;;
33190;SDS011;19554;42.652;23.364;2023-05-17T10:09:58;18.88;;;8.60;;
33190;SDS011;19554;42.652;23.364;2023-05-17T10:12:27;20.50;;;9.38;;
33190;SDS011;19554;42.652;23.364;2023-05-17T10:14:55;20.45;;;9.05;;
33190;SDS011;19554;42.652;23.364;2023-05-17T10:17:23;18.60;;;8.70;;
33190;SDS011;19554;42.652;23.364;2023-05-17T10:19:52;20.50;;;8.43;;
33190;SDS011;19554;42.652;23.364;2023-05-17T10:22:20;15.23;;;8.70;;
33190;SDS011;19554;42.652;23.364;2023-05-17T10:24:46;25.00;;;9.50;;
33190;SDS011;19554;42.652;23.364;2023-05-17T10:27:13;21.48;;;9.57;;
33190;SDS011;19554;42.652;23.364;2023-05-17T10:29:39;16.25;;;9.02;;
33190;SDS011;19554;42.652;23.364;2023-05-17T10:32:06;27.30;;;10.38;;
33190;SDS011;19554;42.652;23.364;2023-05-17T10:34:36;20.08;;;9.48;;
33190;SDS011;19554;42.652;23.364;2023-05-17T10:37:03;18.27;;;9.52;;
33190;SDS011;19554;42.652;23.364;2023-05-17T10:39:29;23.63;;;9.95;;
33190;SDS011;19554;42.652;23.364;2023-05-17T10:41:58;21.55;;;9.27;;
33190;SDS011;19554;42.652;23.364;2023-05-17T10:44:25;21.70;;;9.15;;
33190;SDS011;19554;42.652;23.364;2023-05-17T10:46:54;27.67;;;10.13;;
33190;SDS011;19554;42.652;23.364;2023-05-17T10:49:25;18.77;;;9.25;;
33190;SDS011;19554;42.652;23.364;2023-05-17T10:51:53;22.27;;;9.38;;
33190;SDS011;19554;42.652;23.364;2023-05-17T10:54:20;16.95;;;9.27;;
33190;SDS011;19554;42.652;23.364;2023-05-17T10:57:02;22.98;;;9.65;;
33190;SDS011;19554;42.652;23.364;2023-05-17T10:59:30;19.30;;;9.82;;
33190;SDS011;19554;42.652;23.364;2023-05-17T11:02:00;27.52;;;9.73;;
33190;SDS011;19554;42.652;23.364;2023-05-17T11:09:42;18.98;;;8.88;;
33190;SDS011;19554;42.652;23.364;2023-05-17T11:12:11;20.35;;;8.70;;
33190;SDS011;19554;42.652;23.364;2023-05-17T11:17:16;15.90;;;8.20;;
33190;SDS011;19554;42.652;23.364;2023-05-17T11:22:21;28.50;;;10.73;;
33190;SDS011;19554;42.652;23.364;2023-05-17T11:24:53;28.63;;;10.85;;
33190;SDS011;19554;42.652;23.364;2023-05-17T11:27:21;21.98;;;11.10;;
33190;SDS011;19554;42.652;23.364;2023-05-17T11:29:51;22.97;;;10.13;;
33190;SDS011;19554;42.652;23.364;2023-05-17T11:32:24;28.13;;;12.07;;
33190;SDS011;19554;42.652;23.364;2023-05-17T11:34:52;25.20;;;10.75;;
33190;SDS011;19554;42.652;23.364;2023-05-17T11:37:24;22.88;;;13.40;;
33190;SDS011;19554;42.652;23.364;2023-05-17T11:40:04;28.73;;;12.98;;
33190;SDS011;19554;42.652;23.364;2023-05-17T11:42:31;28.70;;;12.95;;
33190;SDS011;19554;42.652;23.364;2023-05-17T11:44:57;26.45;;;12.10;;
33190;SDS011;19554;42.652;23.364;2023-05-17T11:47:25;25.58;;;11.63;;
33190;SDS011;19554;42.652;23.364;2023-05-17T11:49:51;21.35;;;10.52;;
33190;SDS011;19554;42.652;23.364;2023-05-17T11:52:18;19.08;;;9.02;;
33190;SDS011;19554;42.652;23.364;2023-05-17T11:54:44;21.27;;;8.13;;
33190;SDS011;19554;42.652;23.364;2023-05-17T11:57:10;17.77;;;8.02;;
33190;SDS011;19554;42.652;23.364;2023-05-17T11:59:40;19.08;;;9.15;;
33190;SDS011;19554;42.652;23.364;2023-05-17T12:02:07;21.92;;;9.27;;
33190;SDS011;19554;42.652;23.364;2023-05-17T12:04:34;14.65;;;8.80;;
33190;SDS011;19554;42.652;23.364;2023-05-17T12:07:01;25.98;;;9.90;;
33190;SDS011;19554;42.652;23.364;2023-05-17T12:09:28;22.67;;;9.55;;
33190;SDS011;19554;42.652;23.364;2023-05-17T12:11:53;18.17;;;9.45;;
33190;SDS011;19554;42.652;23.364;2023-05-17T12:14:20;23.58;;;9.13;;
33190;SDS011;19554;42.652;23.364;2023-05-17T12:16:52;20.75;;;8.73;;
33190;SDS011;19554;42.652;23.364;2023-05-17T12:19:22;17.05;;;8.50;;
33190;SDS011;19554;42.652;23.364;2023-05-17T12:21:49;19.45;;;9.40;;
33190;SDS011;19554;42.652;23.364;2023-05-17T12:24:15;19.98;;;9.77;;
33190;SDS011;19554;42.652;23.364;2023-05-17T12:26:41;17.73;;;9.07;;
33190;SDS011;19554;42.652;23.364;2023-05-17T12:29:11;22.40;;;9.65;;
33190;SDS011;19554;42.652;23.364;2023-05-17T12:31:46;23.70;;;9.73;;
33190;SDS011;19554;42.652;23.364;2023-05-17T12:34:14;18.15;;;9.20;;
33190;SDS011;19554;42.652;23.364;2023-05-17T12:36:41;21.30;;;9.45;;
33190;SDS011;19554;42.652;23.364;2023-05-17T12:39:08;17.52;;;9.38;;
33190;SDS011;19554;42.652;23.364;2023-05-17T12:41:36;15.25;;;9.60;;
33190;SDS011;19554;42.652;23.364;2023-05-17T12:44:02;24.33;;;11.52;;
33190;SDS011;19554;42.652;23.364;2023-05-17T12:46:28;21.25;;;10.20;;
33190;SDS011;19554;42.652;23.364;2023-05-17T12:48:54;20.42;;;11.48;;
33190;SDS011;19554;42.652;23.364;2023-05-17T12:51:20;19.52;;;11.13;;
33190;SDS011;19554;42.652;23.364;2023-05-17T12:53:50;22.98;;;11.45;;
33190;SDS011;19554;42.652;23.364;2023-05-17T12:56:17;26.88;;;12.23;;
33190;SDS011;19554;42.652;23.364;2023-05-17T12:58:46;22.25;;;11.13;;
33190;SDS011;19554;42.652;23.364;2023-05-17T13:01:46;27.38;;;10.30;;
33190;SDS011;19554;42.652;23.364;2023-05-17T13:04:13;22.52;;;10.10;;
33190;SDS011;19554;42.652;23.364;2023-05-17T13:06:47;24.55;;;10.00;;
33190;SDS011;19554;42.652;23.364;2023-05-17T13:09:15;21.15;;;10.93;;
33190;SDS011;19554;42.652;23.364;2023-05-17T13:11:42;20.95;;;10.07;;
33190;SDS011;19554;42.652;23.364;2023-05-17T13:14:14;18.40;;;10.88;;
33190;SDS011;19554;42.652;23.364;2023-05-17T13:16:39;19.25;;;9.27;;
33190;SDS011;19554;42.652;23.364;2023-05-17T13:19:12;22.45;;;9.75;;
33190;SDS011;19554;42.652;23.364;2023-05-17T13:21:38;20.55;;;9.68;;
33190;SDS011;19554;42.652;23.364;2023-05-17T13:24:03;19.88;;;9.77;;
33190;SDS011;19554;42.652;23.364;2023-05-17T13:26:29;18.05;;;9.77;;
33190;SDS011;19554;42.652;23.364;2023-05-17T13:28:54;20.25;;;9.75;;
33190;SDS011;19554;42.652;23.364;2023-05-17T13:31:20;19.75;;;8.85;;
33190;SDS011;19554;42.652;23.364;2023-05-17T13:33:45;17.15;;;9.35;;
33190;SDS011;19554;42.652;23.364;2023-05-17T13:36:13;18.52;;;8.23;;
33190;SDS011;19554;42.652;23.364;2023-05-17T13:38:40;18.70;;;8.48;;
33190;SDS011;19554;42.652;23.364;2023-05-17T13:41:05;18.30;;;8.50;;
33190;SDS011;19554;42.652;23.364;2023-05-17T13:43:33;13.98;;;7.57;;
33190;SDS011;19554;42.652;23.364;2023-05-17T13:45:59;15.35;;;8.05;;
33190;SDS011;19554;42.652;23.364;2023-05-17T13:48:25;17.85;;;8.50;;
33190;SDS011;19554;42.652;23.364;2023-05-17T13:50:50;16.70;;;8.32;;
33190;SDS011;19554;42.652;23.364;2023-05-17T13:53:16;19.98;;;7.32;;
33190;SDS011;19554;42.652;23.364;2023-05-17T13:55:42;14.18;;;7.53;;
33190;SDS011;19554;42.652;23.364;2023-05-17T13:58:07;14.23;;;7.72;;
33190;SDS011;19554;42.652;23.364;2023-05-17T14:00:32;18.23;;;7.63;;
33190;SDS011;19554;42.652;23.364;2023-05-17T14:02:58;18.83;;;7.70;;
33190;SDS011;19554;42.652;23.364;2023-05-17T14:05:23;15.98;;;7.00;;
33190;SDS011;19554;42.652;23.364;2023-05-17T14:07:49;14.60;;;6.32;;
33190;SDS011;19554;42.652;23.364;2023-05-17T14:10:15;17.48;;;6.18;;
33190;SDS011;19554;42.652;23.364;2023-05-17T14:12:40;19.55;;;7.88;;
33190;SDS011;19554;42.652;23.364;2023-05-17T14:15:06;15.60;;;6.35;;
33190;SDS011;19554;42.652;23.364;2023-05-17T14:17:32;15.75;;;6.35;;
33190;SDS011;19554;42.652;23.364;2023-05-17T14:19:58;15.38;;;5.35;;
33190;SDS011;19554;42.652;23.364;2023-05-17T14:22:23;14.73;;;6.65;;
33190;SDS011;19554;42.652;23.364;2023-05-17T14:24:49;14.77;;;5.93;;
33190;SDS011;19554;42.652;23.364;2023-05-17T14:27:14;12.57;;;5.13;;
33190;SDS011;19554;42.652;23.364;2023-05-17T14:29:40;12.88;;;5.50;;
33190;SDS011;19554;42.652;23.364;2023-05-17T14:32:05;10.57;;;4.97;;